Time;durP1;ratioP1;P1;durP2;ratioP2;P2;SDS_P1;SDS_P2;PMS_P1;PMS_P2;Temp;Humidity;BMP_temperature;BMP_pressure;BME280_temperature;BME280_humidity;BME280_pressure;Samples;Min_cycle;Max_cycle;Signal;HPM_P1;HPM_P2
2021/12/07 00:00:23;;;;;;;0.20;0.20;;;;;;;18.94;42.27;100004.16;5123373;27;20039;-36
2021/12/07 00:02:49;;;;;;;0.20;0.20;;;;;;;18.94;42.19;100001.38;5140085;27;20417;-36
2021/12/07 00:05:16;;;;;;;0.20;0.20;;;;;;;18.93;41.92;99999.75;5144233;27;20046;-36
2021/12/07 00:07:43;;;;;;;0.20;0.20;;;;;;;18.94;42.00;100003.31;5143500;27;20043;-38
2021/12/07 00:10:10;;;;;;;0.20;0.20;;;;;;;18.93;42.32;100010.78;5148387;27;20511;-37
2021/12/07 00:12:39;;;;;;;0.20;0.20;;;;;;;18.94;42.19;100011.59;5121010;27;20426;-36
2021/12/07 00:15:06;;;;;;;0.20;0.20;;;;;;;18.94;42.04;100017.13;5109954;28;20048;-36
2021/12/07 00:17:32;;;;;;;0.20;0.20;;;;;;;18.94;41.98;100012.41;5102533;28;20043;-36
2021/12/07 00:20:00;;;;;;;0.20;0.20;;;;;;;18.93;41.99;100021.81;5107016;28;20051;-36
2021/12/07 00:22:26;;;;;;;0.20;0.20;;;;;;;18.92;42.01;100022.94;5109612;28;20057;-36
2021/12/07 00:24:52;;;;;;;0.20;0.20;;;;;;;18.93;42.19;100018.25;5105422;28;20036;-36
2021/12/07 00:27:17;;;;;;;0.20;0.20;;;;;;;18.93;41.90;100013.53;5108699;28;20130;-36
2021/12/07 00:29:43;;;;;;;0.20;0.20;;;;;;;18.91;42.01;100018.56;5109357;28;20466;-36
2021/12/07 00:32:30;;;;;;;0.20;0.20;;;;;;;18.93;42.15;100021.00;5108705;28;20122;-36
2021/12/07 00:35:19;;;;;;;0.20;0.20;;;;;;;18.92;42.25;100020.19;5092706;28;20036;-36
2021/12/07 00:37:45;;;;;;;0.20;0.20;;;;;;;18.91;42.17;100024.06;5093219;28;20048;-36
2021/12/07 00:40:14;;;;;;;0.30;0.30;;;;;;;18.92;42.30;100025.72;5107399;28;20107;-37
2021/12/07 00:42:40;;;;;;;0.30;0.30;;;;;;;18.93;42.09;100026.53;5091559;28;20039;-36
2021/12/07 00:45:08;;;;;;;0.20;0.20;;;;;;;18.92;42.02;100036.75;5088865;28;20069;-40
2021/12/07 00:47:33;;;;;;;0.20;0.20;;;;;;;18.91;42.17;100040.63;5090930;28;20062;-36
2021/12/07 00:49:59;;;;;;;0.20;0.20;;;;;;;18.92;41.89;100036.75;5107395;28;20142;-36
2021/12/07 00:52:25;;;;;;;0.20;0.20;;;;;;;18.91;42.03;100048.91;5108081;28;20055;-37
2021/12/07 00:54:51;;;;;;;0.20;0.20;;;;;;;18.91;42.09;100046.16;5105758;28;20036;-36
2021/12/07 00:57:16;;;;;;;0.20;0.20;;;;;;;18.90;42.35;100055.53;5089321;28;20055;-36
2021/12/07 00:59:42;;;;;;;0.20;0.20;;;;;;;18.90;42.09;100049.19;5106641;28;20043;-36
2021/12/07 01:02:08;;;;;;;0.20;0.20;;;;;;;18.90;42.28;100052.75;5087964;28;20130;-36
2021/12/07 01:04:34;;;;;;;0.20;0.20;;;;;;;18.90;41.74;100057.47;5090775;28;20043;-36
2021/12/07 01:07:04;;;;;;;0.20;0.20;;;;;;;18.90;42.03;100066.56;5104495;28;20040;-37
2021/12/07 01:26:04;;;;;;;0.20;0.20;;;;;;;18.89;42.23;100088.94;5091972;28;20096;-36
2021/12/07 01:28:35;;;;;;;0.20;0.20;;;;;;;18.89;42.03;100106.31;5089331;28;20048;-37
2021/12/07 01:31:14;;;;;;;0.20;0.20;;;;;;;18.89;42.17;100102.72;5107505;28;20048;-36
2021/12/07 01:34:19;;;;;;;0.20;0.20;;;;;;;18.88;41.97;100104.69;5106086;28;20529;-36
2021/12/07 01:39:37;;;;;;;0.20;0.20;;;;;;;18.89;42.06;100113.78;5091408;28;20138;-36
2021/12/07 01:45:03;;;;;;;0.20;0.20;;;;;;;18.87;42.16;100127.88;5092579;28;20079;-37
2021/12/07 01:49:34;;;;;;;0.20;0.20;;;;;;;18.88;41.96;100124.00;5078171;28;20458;-37
2021/12/07 01:50:36;;;;;;;0.20;0.20;;;;;;;18.87;42.23;100127.88;5092992;28;20051;-41
2021/12/07 01:53:13;;;;;;;0.20;0.20;;;;;;;18.86;42.24;100142.75;5088480;28;20050;-38
2021/12/07 02:01:17;;;;;;;0.20;0.20;;;;;;;18.87;41.90;100165.66;5161619;27;20201;-37
2021/12/07 02:03:43;;;;;;;0.20;0.20;;;;;;;18.86;42.15;100173.09;5141347;27;20050;-37
2021/12/07 02:06:10;;;;;;;0.20;0.20;;;;;;;18.86;42.32;100178.63;5128134;27;20545;-37
2021/12/07 02:08:36;;;;;;;0.30;0.30;;;;;;;18.87;42.23;100193.25;5146836;27;20476;-38
2021/12/07 02:11:03;;;;;;;0.20;0.20;;;;;;;18.88;42.12;100194.91;5150015;27;20058;-37
2021/12/07 02:15:58;;;;;;;0.20;0.20;;;;;;;18.86;42.20;100206.22;5142189;27;20080;-37
2021/12/07 02:18:24;;;;;;;0.20;0.20;;;;;;;18.87;42.10;100198.75;5163608;27;20038;-37
2021/12/07 02:20:50;;;;;;;0.20;0.20;;;;;;;18.87;42.27;100207.03;5168362;27;20384;-37
2021/12/07 02:23:16;;;;;;;0.20;0.20;;;;;;;18.86;42.12;100208.97;5164338;27;20042;-37
2021/12/07 02:25:42;;;;;;;0.20;0.20;;;;;;;18.86;42.20;100213.69;5163094;27;20043;-38
2021/12/07 02:28:13;;;;;;;0.25;0.25;;;;;;;18.86;42.16;100206.22;5165052;27;20050;-37
2021/12/07 02:30:40;;;;;;;0.20;0.20;;;;;;;18.87;42.23;100212.56;5150568;27;20133;-38
2021/12/07 02:33:06;;;;;;;0.20;0.20;;;;;;;18.87;42.19;100209.78;5163276;27;20042;-37
2021/12/07 02:35:32;;;;;;;0.20;0.20;;;;;;;18.87;42.08;100212.56;5146091;27;20048;-38
2021/12/07 02:37:58;;;;;;;0.20;0.20;;;;;;;18.85;42.18;100221.13;5167783;27;20047;-37
2021/12/07 02:40:24;;;;;;;0.20;0.20;;;;;;;18.86;41.97;100221.94;5163035;27;20051;-37
2021/12/07 02:42:50;;;;;;;0.20;0.20;;;;;;;18.85;42.33;100228.59;5170249;27;20403;-37
2021/12/07 02:45:18;;;;;;;0.20;0.20;;;;;;;18.85;42.05;100231.34;5171248;27;20241;-37
2021/12/07 02:47:45;;;;;;;0.20;0.20;;;;;;;18.85;42.05;100229.41;5165515;27;20046;-38
2021/12/07 02:50:11;;;;;;;0.20;0.20;;;;;;;18.85;42.11;100236.88;5161798;27;20403;-40
2021/12/07 02:52:37;;;;;;;0.20;0.20;;;;;;;18.84;42.00;100247.09;5134409;27;20123;-38
2021/12/07 02:55:04;;;;;;;0.20;0.20;;;;;;;18.85;42.06;100253.41;5145215;27;20477;-37
2021/12/07 02:57:30;;;;;;;0.20;0.20;;;;;;;18.84;42.05;100252.59;5142631;27;20070;-38
2021/12/07 03:00:02;;;;;;;0.20;0.20;;;;;;;18.85;42.11;100268.03;5144101;27;20047;-37
2021/12/07 03:02:30;;;;;;;0.20;0.20;;;;;;;18.84;42.22;100287.66;5166602;27;20438;-37
2021/12/07 03:05:02;;;;;;;0.20;0.20;;;;;;;18.85;42.17;100292.03;5164899;27;20069;-38
2021/12/07 03:07:47;;;;;;;0.20;0.20;;;;;;;18.84;42.21;100284.88;5162406;27;20039;-37
2021/12/07 03:26:48;;;;;;;0.20;0.20;;;;;;;18.82;42.05;100296.19;5134777;27;20100;-37
2021/12/07 03:29:14;;;;;;;0.20;0.20;;;;;;;18.82;42.24;100298.13;5149432;27;20071;-37
2021/12/07 03:31:40;;;;;;;0.20;0.20;;;;;;;18.82;42.23;100307.22;5134462;27;20095;-36
2021/12/07 03:34:06;;;;;;;0.20;0.20;;;;;;;18.83;42.36;100305.31;5150847;27;20055;-36
2021/12/07 03:36:32;;;;;;;0.20;0.20;;;;;;;18.83;42.09;100316.34;5154073;27;20434;-36
2021/12/07 03:38:58;;;;;;;0.20;0.20;;;;;;;18.84;42.26;100329.03;5151617;27;20046;-36
2021/12/07 03:41:23;;;;;;;0.20;0.20;;;;;;;18.82;42.29;100331.25;5120933;27;20042;-36
2021/12/07 03:43:49;;;;;;;0.20;0.20;;;;;;;18.82;42.29;100326.53;5150344;27;20065;-36
2021/12/07 03:46:16;;;;;;;0.20;0.20;;;;;;;18.83;42.29;100327.41;5132802;27;20142;-37
2021/12/07 03:48:42;;;;;;;0.20;0.20;;;;;;;18.83;42.20;100327.41;5134575;27;20119;-37
2021/12/07 03:51:08;;;;;;;0.20;0.20;;;;;;;18.82;42.05;100337.59;5150180;27;20047;-36
2021/12/07 03:53:34;;;;;;;0.20;0.20;;;;;;;18.82;42.07;100337.59;5128688;27;20058;-36
2021/12/07 03:56:01;;;;;;;0.20;0.20;;;;;;;18.82;42.16;100345.84;5148949;27;20047;-36
2021/12/07 03:58:32;;;;;;;0.20;0.20;;;;;;;18.82;42.23;100337.59;5145767;27;20042;-36
2021/12/07 04:00:58;;;;;;;0.20;0.20;;;;;;;18.82;42.33;100345.84;5150921;27;20062;-36
2021/12/07 04:03:24;;;;;;;0.20;0.20;;;;;;;18.81;42.13;100341.47;5150286;27;20050;-36
2021/12/07 04:05:54;;;;;;;0.20;0.20;;;;;;;18.82;42.39;100356.06;5132757;27;20077;-36
2021/12/07 04:08:23;;;;;;;0.20;0.20;;;;;;;18.81;42.25;100355.25;5153259;27;20125;-37
2021/12/07 04:10:50;;;;;;;0.20;0.20;;;;;;;18.82;42.23;100369.88;5151698;27;20055;-39
2021/12/07 04:13:15;;;;;;;0.20;0.20;;;;;;;18.80;42.47;100354.44;5131616;27;20392;-36
2021/12/07 04:15:41;;;;;;;0.20;0.20;;;;;;;18.82;42.27;100370.69;5131514;27;20477;-36
2021/12/07 04:18:07;;;;;;;0.20;0.20;;;;;;;18.81;42.13;100377.31;5147921;27;20043;-37
2021/12/07 04:20:33;;;;;;;0.20;0.20;;;;;;;18.81;42.58;100377.31;5150868;27;20159;-37
2021/12/07 04:22:59;;;;;;;0.20;0.20;;;;;;;18.81;42.15;100371.81;5133387;27;20047;-37
2021/12/07 04:25:24;;;;;;;0.20;0.20;;;;;;;18.79;42.08;100383.16;5148061;27;20042;-36
2021/12/07 04:27:51;;;;;;;0.20;0.20;;;;;;;18.80;42.34;100390.28;5133885;27;20122;-38
2021/12/07 04:30:20;;;;;;;0.20;0.20;;;;;;;18.80;42.25;100393.06;5148102;27;20568;-38
2021/12/07 04:32:46;;;;;;;0.20;0.20;;;;;;;18.81;42.19;100393.88;5131718;27;20045;-36
2021/12/07 04:35:12;;;;;;;0.20;0.20;;;;;;;18.81;41.99;100396.63;5149089;27;20039;-37
2021/12/07 04:37:39;;;;;;;0.20;0.20;;;;;;;18.80;42.32;100395.81;5115614;27;20053;-37
2021/12/07 04:40:08;;;;;;;0.20;0.20;;;;;;;18.80;42.38;100395.00;5109264;27;20061;-37
2021/12/07 04:42:34;;;;;;;0.20;0.20;;;;;;;18.80;42.36;100411.56;5132724;27;20066;-37
2021/12/07 04:45:04;;;;;;;0.20;0.20;;;;;;;18.80;42.17;100404.09;5129268;27;20042;-37
2021/12/07 04:47:45;;;;;;;0.20;0.20;;;;;;;18.81;42.32;100413.19;5149694;27;20046;-37
2021/12/07 04:50:41;;;;;;;0.20;0.20;;;;;;;18.79;42.17;100409.91;5150748;27;20042;-37
2021/12/07 04:58:22;;;;;;;0.20;0.20;;;;;;;18.80;42.10;100417.06;5154957;27;20526;-37
2021/12/07 05:00:49;;;;;;;0.20;0.20;;;;;;;18.80;42.24;100419.81;5144402;27;20463;-36
2021/12/07 05:03:15;;;;;;;0.20;0.20;;;;;;;18.79;42.32;100421.75;5138836;27;20035;-37
2021/12/07 05:05:47;;;;;;;0.20;0.20;;;;;;;18.79;42.21;100423.72;5121246;27;20070;-37
2021/12/07 05:08:16;;;;;;;0.20;0.20;;;;;;;18.79;42.16;100431.97;5135725;27;20047;-37
2021/12/07 05:11:22;;;;;;;0.20;0.20;;;;;;;18.79;42.34;100432.81;5137747;27;20607;-37
2021/12/07 05:13:33;;;;;;;0.20;0.20;;;;;;;18.79;42.32;100437.50;5127170;27;20043;-37
2021/12/07 05:24:22;;;;;;;0.20;0.20;;;;;;;18.79;42.38;100448.53;5142688;27;20476;-36
2021/12/07 05:37:56;;;;;;;0.20;0.20;;;;;;;18.78;42.44;100468.94;5146281;27;20042;-37
2021/12/07 05:40:28;;;;;;;0.30;0.30;;;;;;;18.78;42.18;100477.22;5158383;27;20477;-37
2021/12/07 05:42:55;;;;;;;0.20;0.20;;;;;;;18.79;42.45;100485.22;5141684;27;20134;-37
2021/12/07 05:45:26;;;;;;;0.20;0.20;;;;;;;18.78;42.11;100489.09;5162007;27;20403;-36
2021/12/07 05:47:52;;;;;;;0.20;0.20;;;;;;;18.78;42.48;100491.84;5141616;27;20039;-36
2021/12/07 05:50:23;;;;;;;0.20;0.20;;;;;;;18.77;42.48;100484.66;5160369;27;20046;-37
2021/12/07 05:52:49;;;;;;;0.30;0.30;;;;;;;18.78;42.42;100496.53;5155177;27;20049;-37
2021/12/07 05:55:15;;;;;;;0.30;0.30;;;;;;;18.78;42.19;100507.56;5155765;27;20042;-38
2021/12/07 05:57:41;;;;;;;0.30;0.30;;;;;;;18.76;42.19;100505.09;5123331;27;20047;-37
2021/12/07 06:00:11;;;;;;;0.22;0.22;;;;;;;18.79;42.22;100506.47;5122778;27;20117;-37
2021/12/07 06:02:36;;;;;;;0.30;0.30;;;;;;;18.77;42.46;100528.81;5160485;27;20031;-38
2021/12/07 06:05:03;;;;;;;0.20;0.20;;;;;;;18.78;42.16;100524.09;5158978;27;20121;-37
2021/12/07 06:07:29;;;;;;;0.20;0.20;;;;;;;18.77;42.55;100523.28;5161462;27;20042;-39
2021/12/07 06:09:54;;;;;;;0.30;0.30;;;;;;;18.78;42.43;100530.47;5162762;27;20178;-37
2021/12/07 06:12:20;;;;;;;0.20;0.20;;;;;;;18.78;42.26;100532.38;5159240;27;20392;-39
2021/12/07 06:14:46;;;;;;;0.20;0.20;;;;;;;18.78;42.37;100546.19;5143954;27;20043;-37
2021/12/07 06:17:12;;;;;;;0.20;0.20;;;;;;;18.77;42.44;100539.84;5156839;27;20050;-37
2021/12/07 06:19:38;;;;;;;0.30;0.30;;;;;;;18.77;42.21;100537.06;5154599;27;20043;-38
2021/12/07 06:22:05;;;;;;;0.20;0.20;;;;;;;18.77;42.40;100539.84;5159333;27;20042;-37
2021/12/07 06:24:32;;;;;;;0.20;0.20;;;;;;;18.78;42.62;100551.69;5157034;27;20045;-38
2021/12/07 06:26:58;;;;;;;0.30;0.30;;;;;;;18.77;42.20;100556.38;5137806;27;20049;-41
2021/12/07 06:29:23;;;;;;;0.25;0.25;;;;;;;18.78;42.36;100555.31;5151456;27;20046;-37
2021/12/07 06:31:49;;;;;;;0.20;0.20;;;;;;;18.78;42.47;100573.75;5143844;27;20046;-39
2021/12/07 06:34:15;;;;;;;0.30;0.30;;;;;;;18.78;42.32;100559.97;5124918;27;20046;-42
2021/12/07 06:36:41;;;;;;;0.20;0.20;;;;;;;18.78;42.28;100565.50;5120097;27;20130;-40
2021/12/07 06:39:08;;;;;;;0.30;0.30;;;;;;;18.77;42.28;100578.47;5143180;27;20078;-44
2021/12/07 06:41:34;;;;;;;0.22;0.22;;;;;;;18.77;42.29;100564.66;5123112;27;20106;-40
2021/12/07 06:44:00;;;;;;;0.20;0.20;;;;;;;18.77;42.43;100574.88;5132392;27;20043;-41
2021/12/07 06:46:26;;;;;;;0.20;0.20;;;;;;;18.77;42.53;100572.94;5120313;27;20318;-38
2021/12/07 06:48:52;;;;;;;0.20;0.20;;;;;;;18.77;42.32;100558.31;5144160;27;20053;-40
2021/12/07 06:51:17;;;;;;;0.30;0.30;;;;;;;18.77;42.42;100566.59;5136899;27;20047;-41
2021/12/07 06:53:43;;;;;;;0.22;0.22;;;;;;;18.78;42.53;100571.00;5140354;27;20426;-42
2021/12/07 06:56:10;;;;;;;0.20;0.20;;;;;;;18.77;42.44;100556.38;5144715;27;20043;-42
2021/12/07 06:58:36;;;;;;;0.30;0.30;;;;;;;18.76;42.47;100563.03;5138381;27;20034;-44
2021/12/07 07:01:06;;;;;;;0.20;0.20;;;;;;;18.77;42.20;100570.19;5138077;27;20065;-41
2021/12/07 07:03:32;;;;;;;0.20;0.20;;;;;;;18.77;42.36;100564.66;5141087;27;20324;-43
2021/12/07 07:06:00;;;;;;;0.20;0.20;;;;;;;18.78;42.43;100571.00;5112811;27;20047;-46
2021/12/07 07:08:25;;;;;;;0.20;0.20;;;;;;;18.78;42.31;100568.25;5122043;27;20046;-40
2021/12/07 07:10:51;;;;;;;0.20;0.20;;;;;;;18.77;42.42;100567.44;5135367;27;20099;-46
2021/12/07 07:13:17;;;;;;;0.20;0.20;;;;;;;18.76;42.35;100570.47;5135869;27;20043;-39
2021/12/07 07:15:42;;;;;;;0.20;0.20;;;;;;;18.77;42.27;100569.38;5134783;27;20409;-38
2021/12/07 07:18:08;;;;;;;0.20;0.20;;;;;;;18.77;42.35;100570.19;5148051;27;20182;-40
2021/12/07 07:20:34;;;;;;;0.20;0.20;;;;;;;18.77;42.08;100594.19;5146307;27;20541;-40
2021/12/07 07:23:00;;;;;;;0.20;0.20;;;;;;;18.77;42.11;100583.16;5104787;27;20051;-38
2021/12/07 07:25:26;;;;;;;0.20;0.20;;;;;;;18.77;42.31;100589.50;5144272;27;20426;-41
2021/12/07 07:27:51;;;;;;;0.20;0.20;;;;;;;18.76;42.31;100589.78;5142279;27;20692;-38
2021/12/07 07:30:18;;;;;;;0.20;0.20;;;;;;;18.77;42.51;100599.72;5119117;27;20374;-39
2021/12/07 07:32:45;;;;;;;0.20;0.20;;;;;;;18.77;42.18;100597.78;5121514;27;20047;-39
2021/12/07 07:35:12;;;;;;;0.20;0.20;;;;;;;18.77;42.30;100605.22;5136000;27;20079;-43
2021/12/07 07:37:38;;;;;;;0.28;0.28;;;;;;;18.76;42.26;100607.16;5138645;27;20039;-40
2021/12/07 07:40:05;;;;;;;0.20;0.20;;;;;;;18.77;42.44;100603.28;5122080;27;20066;-45
2021/12/07 07:42:32;;;;;;;;;;;;;;;18.77;42.45;100602.47;5136471;27;20101;-44
2021/12/07 07:44:57;;;;;;;0.20;0.20;;;;;;;18.76;42.32;100598.06;5133117;27;19935;-40
2021/12/07 07:47:23;;;;;;;0.20;0.20;;;;;;;18.76;42.35;100598.06;5140418;27;20047;-42
2021/12/07 07:49:49;;;;;;;0.30;0.30;;;;;;;18.76;42.21;100601.66;5137556;27;20067;-43
2021/12/07 07:52:15;;;;;;;0.25;0.25;;;;;;;18.77;42.14;100606.03;5142739;27;20045;-39
2021/12/07 07:54:40;;;;;;;0.20;0.20;;;;;;;18.76;42.47;100604.41;5117513;27;20051;-41
2021/12/07 07:57:06;;;;;;;0.20;0.20;;;;;;;18.76;42.38;100598.88;5138248;27;20427;-44
2021/12/07 07:59:32;;;;;;;0.30;0.30;;;;;;;18.77;42.44;100607.97;5135686;27;20042;-40
2021/12/07 08:01:57;;;;;;;0.20;0.20;;;;;;;18.76;42.46;100598.88;5136618;27;20091;-39
2021/12/07 08:04:23;;;;;;;0.20;0.20;;;;;;;18.77;42.21;100602.47;5117110;27;20192;-45
2021/12/07 08:06:49;;;;;;;0.25;0.25;;;;;;;18.76;42.10;100598.88;5132174;27;20043;-39
2021/12/07 08:09:15;;;;;;;0.20;0.20;;;;;;;18.76;42.36;100598.88;5131368;27;20038;-40
2021/12/07 08:11:41;;;;;;;0.20;0.20;;;;;;;18.77;42.10;100597.78;5127175;27;20046;-44
2021/12/07 08:14:07;;;;;;;0.20;0.20;;;;;;;18.77;42.38;100599.72;5128905;27;20058;-39
2021/12/07 08:16:33;;;;;;;0.20;0.20;;;;;;;18.77;42.32;100599.72;5132591;27;20077;-39
2021/12/07 08:18:59;;;;;;;0.20;0.20;;;;;;;18.76;42.21;100598.88;5129881;27;20134;-40
2021/12/07 08:21:24;;;;;;;0.20;0.20;;;;;;;18.77;42.10;100606.03;5137120;27;20445;-46
2021/12/07 08:23:50;;;;;;;0.20;0.20;;;;;;;18.77;42.11;100600.53;5116716;27;20070;-40
2021/12/07 08:26:19;;;;;;;0.20;0.20;;;;;;;18.76;42.20;100600.81;5138200;27;20054;-39
2021/12/07 08:28:49;;;;;;;0.20;0.20;;;;;;;18.76;42.45;100601.66;5116169;27;20077;-40
2021/12/07 08:31:15;;;;;;;0.20;0.20;;;;;;;18.76;42.11;100596.13;5099078;27;20051;-42
2021/12/07 08:33:40;;;;;;;0.20;0.20;;;;;;;18.77;42.11;100594.19;5130610;27;20069;-41
2021/12/07 08:36:06;;;;;;;0.20;0.20;;;;;;;18.76;42.35;100593.38;5132230;27;20047;-41
2021/12/07 08:38:32;;;;;;;0.20;0.20;;;;;;;18.77;42.22;100594.19;5110453;27;20437;-41
2021/12/07 08:40:59;;;;;;;0.20;0.20;;;;;;;18.75;42.32;100602.75;5114458;27;20050;-38
2021/12/07 08:43:27;;;;;;;0.20;0.20;;;;;;;18.77;42.19;100613.50;5136500;27;20158;-39
2021/12/07 08:45:54;;;;;;;0.20;0.20;;;;;;;18.77;42.20;100617.09;5139822;27;20046;-43
2021/12/07 08:48:21;;;;;;;0.20;0.20;;;;;;;18.76;42.13;100611.88;5120900;27;20057;-39
2021/12/07 08:50:47;;;;;;;0.20;0.20;;;;;;;18.77;42.12;100619.84;5118355;27;20069;-39
2021/12/07 08:53:15;;;;;;;0.20;0.20;;;;;;;18.77;42.31;100624.53;5130573;27;20043;-42
2021/12/07 09:01:18;;;;;;;0.30;0.30;;;;;;;18.76;42.41;100615.44;5117568;27;20043;-41
2021/12/07 09:03:46;;;;;;;0.20;0.20;;;;;;;18.76;42.36;100611.88;5125403;27;20108;-38
2021/12/07 09:06:11;;;;;;;0.20;0.20;;;;;;;18.76;42.29;100628.41;5131995;27;20049;-45
2021/12/07 09:08:37;;;;;;;0.20;0.20;;;;;;;18.76;42.09;100626.47;5128854;27;20039;-42
2021/12/07 09:11:04;;;;;;;0.20;0.20;;;;;;;18.76;42.28;100633.94;5123885;27;20046;-40
2021/12/07 09:13:29;;;;;;;0.20;0.20;;;;;;;18.76;42.32;100631.16;5130823;27;20051;-41
2021/12/07 09:15:57;;;;;;;0.20;0.20;;;;;;;18.76;42.38;100629.22;5137206;27;20066;-43
2021/12/07 09:18:25;;;;;;;0.20;0.20;;;;;;;18.77;42.17;100635.56;5100070;27;20650;-40
2021/12/07 09:20:51;;;;;;;0.20;0.20;;;;;;;18.76;42.11;100637.50;5128554;27;20062;-38
2021/12/07 09:23:17;;;;;;;0.20;0.20;;;;;;;18.76;42.37;100637.50;5113971;27;20065;-41
2021/12/07 09:25:43;;;;;;;0.20;0.20;;;;;;;18.76;42.28;100620.97;5116857;27;20046;-39
2021/12/07 09:28:10;;;;;;;0.20;0.20;;;;;;;18.76;42.40;100626.47;5132205;27;20047;-41
2021/12/07 09:30:36;;;;;;;0.20;0.20;;;;;;;18.77;42.18;100630.88;5125584;27;20112;-42
2021/12/07 09:33:02;;;;;;;0.20;0.20;;;;;;;18.77;42.14;100635.56;5126066;27;20098;-41
2021/12/07 09:35:28;;;;;;;0.30;0.30;;;;;;;18.77;42.52;100635.56;5127521;27;20046;-42
2021/12/07 09:37:54;;;;;;;0.20;0.20;;;;;;;18.75;42.24;100635.88;5107775;27;20797;-44
2021/12/07 09:40:23;;;;;;;0.20;0.20;;;;;;;18.76;42.27;100634.75;5105618;27;20035;-41
2021/12/07 09:42:50;;;;;;;0.20;0.20;;;;;;;18.76;42.47;100633.94;5125308;27;20047;-42
2021/12/07 09:45:16;;;;;;;0.20;0.20;;;;;;;18.78;42.14;100637.22;5111329;27;21294;-40
2021/12/07 09:47:43;;;;;;;0.20;0.20;;;;;;;18.93;42.33;100637.13;5100452;27;20053;-40
2021/12/07 09:50:12;;;;;;;0.20;0.20;;;;;;;18.95;42.16;100643.19;5134153;27;20161;-39
2021/12/07 09:52:38;;;;;;;0.20;0.20;;;;;;;18.92;42.09;100641.00;5138183;27;20090;-41
2021/12/07 09:55:04;;;;;;;0.20;0.20;;;;;;;18.89;42.33;100635.22;5127771;27;20047;-41
2021/12/07 09:57:30;;;;;;;0.20;0.20;;;;;;;18.88;42.25;100634.41;5115269;27;20486;-40
2021/12/07 09:59:56;;;;;;;0.20;0.20;;;;;;;18.87;42.24;100627.25;5134731;27;20432;-42
2021/12/07 10:02:21;;;;;;;0.20;0.20;;;;;;;18.90;42.08;100634.13;5138111;27;20057;-49
2021/12/07 10:04:48;;;;;;;0.20;0.20;;;;;;;19.26;43.32;100631.94;5130617;27;20047;-44
2021/12/07 10:07:13;;;;;;;0.20;0.20;;;;;;;19.35;42.38;100634.91;5112735;27;20039;-41
2021/12/07 10:09:39;;;;;;;0.20;0.20;;;;;;;19.26;42.60;100637.47;5134855;27;20039;-46
2021/12/07 10:12:06;;;;;;;0.20;0.20;;;;;;;19.20;42.89;100633.91;5135438;27;20035;-43
2021/12/07 10:14:37;;;;;;;0.20;0.20;;;;;;;19.17;42.76;100625.34;5096207;27;20042;-44
2021/12/07 10:17:03;;;;;;;0.20;0.20;;;;;;;19.13;42.69;100616.84;5119365;27;20085;-40
2021/12/07 10:19:32;;;;;;;0.20;0.20;;;;;;;19.12;42.96;100619.88;5136759;27;20043;-40
2021/12/07 10:22:01;;;;;;;0.20;0.20;;;;;;;19.12;42.66;100617.13;5118839;27;20103;-46
2021/12/07 10:24:35;;;;;;;0.20;0.20;;;;;;;19.12;42.60;100617.94;5115334;27;20049;-43
2021/12/07 10:27:01;;;;;;;0.20;0.20;;;;;;;19.11;42.81;100608.03;5119964;27;20409;-46
2021/12/07 10:29:26;;;;;;;0.20;0.20;;;;;;;19.13;42.47;100596.69;5130471;27;20490;-41
2021/12/07 10:31:55;;;;;;;0.20;0.20;;;;;;;19.13;42.43;100597.53;5132701;27;20394;-44
2021/12/07 10:34:24;;;;;;;0.20;0.20;;;;;;;19.13;42.32;100599.44;5130330;27;20409;-40
2021/12/07 10:37:11;;;;;;;0.20;0.20;;;;;;;19.13;42.48;100607.72;5114763;27;20126;-42
2021/12/07 10:39:39;;;;;;;0.20;0.20;;;;;;;19.14;42.53;100603.88;5115237;27;20286;-40
2021/12/07 10:42:08;;;;;;;;;;;;;;;19.14;42.45;100596.41;5098714;27;20043;-43
2021/12/07 10:44:54;;;;;;;0.20;0.20;;;;;;;19.15;42.46;100597.22;5113485;27;19931;-39
2021/12/07 10:47:22;;;;;;;0.20;0.20;;;;;;;19.16;42.26;100598.88;5132864;27;20115;-39
2021/12/07 10:49:51;;;;;;;0.20;0.20;;;;;;;19.16;42.41;100601.63;5115756;27;20065;-45
2021/12/07 10:52:20;;;;;;;0.20;0.20;;;;;;;19.17;42.48;100592.22;5127524;27;20054;-43
2021/12/07 10:55:09;;;;;;;0.20;0.20;;;;;;;19.17;42.15;100595.00;5128006;27;20594;-41
2021/12/07 11:00:39;;;;;;;0.20;0.20;;;;;;;19.27;42.04;100597.69;5154617;27;20121;-37
2021/12/07 11:03:08;;;;;;;0.20;0.20;;;;;;;19.29;41.92;100573.34;5123478;27;20039;-38
2021/12/07 11:05:39;;;;;;;0.20;0.20;;;;;;;19.28;41.98;100585.53;5114769;27;20170;-38
2021/12/07 11:08:06;;;;;;;0.20;0.20;;;;;;;19.27;42.32;100583.88;5128333;27;20145;-37
2021/12/07 11:10:36;;;;;;;0.20;0.20;;;;;;;19.26;42.36;100574.78;5099214;27;20043;-40
2021/12/07 11:13:23;;;;;;;0.20;0.20;;;;;;;19.26;42.16;100563.75;5133571;27;20079;-38
2021/12/07 11:15:54;;;;;;;0.20;0.20;;;;;;;19.28;42.07;100567.00;5134134;27;20435;-37
2021/12/07 11:18:23;;;;;;;0.20;0.20;;;;;;;19.38;42.00;100548.69;5121540;27;20122;-41
2021/12/07 11:20:50;;;;;;;0.20;0.20;;;;;;;19.41;41.99;100550.88;5101557;27;21102;-40
2021/12/07 11:23:20;;;;;;;0.20;0.20;;;;;;;19.40;41.90;100546.50;5140956;27;20045;-45
2021/12/07 11:31:12;;;;;;;0.20;0.20;;;;;;;19.57;42.00;100524.75;5095303;27;20039;-40
2021/12/07 11:33:38;;;;;;;0.20;0.20;;;;;;;19.54;41.91;100528.94;5132467;27;20523;-41
2021/12/07 11:36:23;;;;;;;0.20;0.20;;;;;;;19.48;41.71;100505.25;5133171;27;20050;-40
2021/12/07 11:38:50;;;;;;;0.20;0.20;;;;;;;19.46;41.76;100507.47;5096351;27;20043;-39
2021/12/07 11:41:20;;;;;;;0.20;0.20;;;;;;;19.45;41.75;100508.59;5134403;27;20492;-40
2021/12/07 11:44:05;;;;;;;0.20;0.20;;;;;;;19.61;41.74;100509.28;5126599;27;20250;-46
2021/12/07 11:46:32;;;;;;;0.20;0.20;;;;;;;19.70;41.23;100507.50;5117916;27;20270;-45
2021/12/07 11:49:16;;;;;;;0.20;0.20;;;;;;;19.75;41.21;100507.44;5114356;27;20123;-40
2021/12/07 11:51:44;;;;;;;0.20;0.20;;;;;;;19.76;41.08;100508.28;5115725;27;20122;-42
2021/12/07 11:54:10;;;;;;;0.20;0.20;;;;;;;19.83;40.54;100503.22;5099061;27;20045;-39
2021/12/07 11:56:36;;;;;;;0.20;0.20;;;;;;;19.85;40.79;100509.25;5137952;27;20099;-37
2021/12/07 11:59:03;;;;;;;0.20;0.20;;;;;;;19.85;40.60;100503.72;5133330;27;20378;-43
2021/12/07 12:01:43;;;;;;;0.20;0.20;;;;;;;19.82;40.73;100509.03;5117151;27;20036;-42
2021/12/07 12:04:08;;;;;;;0.20;0.20;;;;;;;19.76;40.76;100506.31;5133152;27;20086;-39
2021/12/07 12:06:35;;;;;;;0.20;0.20;;;;;;;19.72;41.38;100502.50;5131423;27;20036;-39
2021/12/07 12:09:02;;;;;;;0.20;0.20;;;;;;;19.71;41.25;100503.63;5133391;27;20053;-39
2021/12/07 12:12:07;;;;;;;0.20;0.20;;;;;;;19.71;41.09;100494.53;5120687;27;20096;-41
2021/12/07 12:14:46;;;;;;;0.20;0.20;;;;;;;19.70;41.26;100496.47;5101947;27;20055;-38
2021/12/07 12:17:52;;;;;;;0.20;0.20;;;;;;;19.70;41.36;100485.41;5093449;28;20154;-39
2021/12/07 12:20:31;;;;;;;0.20;0.20;;;;;;;19.71;41.18;100483.47;5062862;28;20093;-46
2021/12/07 12:23:13;;;;;;;0.20;0.20;;;;;;;19.71;41.29;100483.47;5087714;28;20051;-40
2021/12/07 12:25:39;;;;;;;0.20;0.20;;;;;;;19.91;41.11;100471.34;5092918;28;20036;-48
2021/12/07 12:28:04;;;;;;;0.20;0.20;;;;;;;20.04;40.58;100465.91;5096090;28;20048;-44
2021/12/07 12:30:33;;;;;;;0.20;0.20;;;;;;;20.04;40.95;100474.19;5071881;28;20044;-45
2021/12/07 12:33:00;;;;;;;;;;;;;;;20.01;40.93;100460.97;5087718;28;20520;-45
2021/12/07 12:35:29;;;;;;;0.20;0.20;;;;;;;19.95;41.22;100459.41;5071029;28;20020;-45
2021/12/07 12:37:55;;;;;;;0.20;0.20;;;;;;;19.91;41.20;100455.59;5069917;28;20178;-43
2021/12/07 12:40:26;;;;;;;0.20;0.20;;;;;;;19.93;40.87;100456.09;5078334;28;20390;-43
2021/12/07 12:42:54;;;;;;;0.20;0.20;;;;;;;20.01;41.23;100454.63;5092354;28;20377;-41
2021/12/07 12:45:28;;;;;;;0.20;0.20;;;;;;;20.00;41.49;100455.75;5070845;28;20054;-40
2021/12/07 12:47:59;;;;;;;0.20;0.20;;;;;;;19.95;41.12;100455.81;5091640;28;20211;-42
2021/12/07 12:50:30;;;;;;;0.20;0.20;;;;;;;19.95;41.27;100456.63;5074237;28;20052;-40
2021/12/07 12:53:01;;;;;;;0.20;0.20;;;;;;;19.94;41.35;100446.69;5090874;28;20042;-40
2021/12/07 12:55:43;;;;;;;0.20;0.20;;;;;;;19.93;41.28;100441.47;5067299;28;20410;-42
2021/12/07 12:58:18;;;;;;;0.20;0.20;;;;;;;19.93;41.70;100436.75;5082075;28;20047;-39